KBIF/BIF METAR and TAF weather

Enter ICAO airport designator
Station Type Date Time Source
KBIF METAR 2018/10/22 16:28 UTC NOAA

KBIF 221628Z AUTO 13004KT 8SM OVC020 16/11 A3017 RMK AO2 LTG DSNT NW SLP175


Station Type Date Time Source
KBIF Decoded METAR 2018/10/22 16:28 UTC NOAA

Biggs Army Air Field / Ft. Bliss, TX, United States (KBIF) 31-51N 106-23W
Oct 22, 2018 - 12:28 PM EDT / 2018.10.22 1628 UTC
Wind: from the SE (130 degrees) at 5 MPH (4 KT):0
Visibility: 8 mile(s):0
Sky conditions: overcast
Weather: Lightning observed
Temperature: 60 F (16 C)
Dew Point: 51 F (11 C)
Relative Humidity: 72%
Pressure (altimeter): 30.17 in. Hg (1021 hPa)
ob: KBIF 221628Z AUTO 13004KT 8SM OVC020 16/11 A3017 RMK AO2 LTG DSNT NW SLP175
cycle: 16

Station Type Date Time Source
KBIF TAF 2018/10/22 14:19 UTC NOAA

TAF KBIF 221412Z 2214/2320 VRB06KT 9999 BKN050 QNH3010INS
BECMG 2218/2219 16009KT 9999 SCT050 QNH3012INS
BECMG 2302/2303 VRB06KT 9999 SCT050 QNH3010INS
BECMG 2317/2318 09009KT 9999 VCSH BKN040 QNH3015INS TX22/2222Z TN12/2312Z


Example: see airport list